sensor_id;sensor_type;location;lat;lon;timestamp;P1;P2;P0
69222;PMS7003;56514;51.816;-0.026;2023-04-28T00:01:26;32.50;31.50;19.50
69222;PMS7003;56514;51.816;-0.026;2023-04-28T00:04:11;26.50;25.00;16.75
69222;PMS7003;56514;51.816;-0.026;2023-04-28T00:06:56;26.75;26.75;18.50
69222;PMS7003;56514;51.816;-0.026;2023-04-28T00:09:41;40.25;35.50;19.75
69222;PMS7003;56514;51.816;-0.026;2023-04-28T00:12:26;28.50;28.50;16.25
69222;PMS7003;56514;51.816;-0.026;2023-04-28T00:15:11;24.75;24.75;14.25
69222;PMS7003;56514;51.816;-0.026;2023-04-28T00:17:56;26.00;26.00;17.25
69222;PMS7003;56514;51.816;-0.026;2023-04-28T00:20:41;29.75;29.75;16.75
69222;PMS7003;56514;51.816;-0.026;2023-04-28T00:23:26;30.25;29.50;17.25
69222;PMS7003;56514;51.816;-0.026;2023-04-28T00:26:11;28.00;28.00;15.00
69222;PMS7003;56514;51.816;-0.026;2023-04-28T00:28:56;23.00;23.00;15.50
69222;PMS7003;56514;51.816;-0.026;2023-04-28T00:31:41;26.50;26.50;15.25
69222;PMS7003;56514;51.816;-0.026;2023-04-28T00:34:26;25.75;25.75;17.25
69222;PMS7003;56514;51.816;-0.026;2023-04-28T00:37:11;25.75;25.75;16.75
69222;PMS7003;56514;51.816;-0.026;2023-04-28T00:39:56;29.50;27.00;18.75
69222;PMS7003;56514;51.816;-0.026;2023-04-28T00:42:40;27.50;25.75;15.75
69222;PMS7003;56514;51.816;-0.026;2023-04-28T00:45:25;28.25;28.25;14.25
69222;PMS7003;56514;51.816;-0.026;2023-04-28T00:48:12;24.25;24.25;14.00
69222;PMS7003;56514;51.816;-0.026;2023-04-28T00:50:57;22.00;22.00;13.25
69222;PMS7003;56514;51.816;-0.026;2023-04-28T00:53:42;26.50;24.00;14.00
69222;PMS7003;56514;51.816;-0.026;2023-04-28T00:56:28;24.00;22.75;13.50
69222;PMS7003;56514;51.816;-0.026;2023-04-28T00:59:15;20.00;17.75;11.00
69222;PMS7003;56514;51.816;-0.026;2023-04-28T01:01:59;21.25;21.25;12.25
69222;PMS7003;56514;51.816;-0.026;2023-04-28T01:04:45;18.00;18.00;11.25
69222;PMS7003;56514;51.816;-0.026;2023-04-28T01:07:32;20.25;19.25;14.00
69222;PMS7003;56514;51.816;-0.026;2023-04-28T01:10:18;27.50;22.00;14.50
69222;PMS7003;56514;51.816;-0.026;2023-04-28T01:13:03;21.00;21.00;13.75
69222;PMS7003;56514;51.816;-0.026;2023-04-28T01:15:48;32.50;31.50;16.00
69222;PMS7003;56514;51.816;-0.026;2023-04-28T01:18:34;20.50;19.75;11.25
69222;PMS7003;56514;51.816;-0.026;2023-04-28T01:21:26;17.75;17.75;10.50
69222;PMS7003;56514;51.816;-0.026;2023-04-28T01:24:16;12.75;12.75;10.25
69222;PMS7003;56514;51.816;-0.026;2023-04-28T01:27:01;17.75;17.75;11.00
69222;PMS7003;56514;51.816;-0.026;2023-04-28T01:29:46;26.50;25.50;16.25
69222;PMS7003;56514;51.816;-0.026;2023-04-28T01:32:53;29.00;28.75;17.50
69222;PMS7003;56514;51.816;-0.026;2023-04-28T01:35:38;23.50;23.50;14.25
69222;PMS7003;56514;51.816;-0.026;2023-04-28T01:38:23;21.00;21.00;12.00
69222;PMS7003;56514;51.816;-0.026;2023-04-28T01:41:08;23.50;21.75;11.00
69222;PMS7003;56514;51.816;-0.026;2023-04-28T01:43:52;32.50;32.50;19.50
69222;PMS7003;56514;51.816;-0.026;2023-04-28T01:46:37;30.75;27.00;14.50
69222;PMS7003;56514;51.816;-0.026;2023-04-28T01:49:22;25.00;23.50;13.75
69222;PMS7003;56514;51.816;-0.026;2023-04-28T01:52:07;24.25;23.25;14.00
69222;PMS7003;56514;51.816;-0.026;2023-04-28T01:54:52;19.75;16.25;8.00
69222;PMS7003;56514;51.816;-0.026;2023-04-28T01:57:38;20.50;20.50;11.00
69222;PMS7003;56514;51.816;-0.026;2023-04-28T02:00:23;16.25;16.25;8.50
69222;PMS7003;56514;51.816;-0.026;2023-04-28T02:03:08;25.25;21.00;11.75
69222;PMS7003;56514;51.816;-0.026;2023-04-28T02:05:53;20.25;20.25;10.50
69222;PMS7003;56514;51.816;-0.026;2023-04-28T02:08:38;17.75;16.75;10.75
69222;PMS7003;56514;51.816;-0.026;2023-04-28T02:11:23;19.00;19.00;11.50
69222;PMS7003;56514;51.816;-0.026;2023-04-28T02:14:07;16.50;16.50;9.00
69222;PMS7003;56514;51.816;-0.026;2023-04-28T02:16:52;18.00;18.00;11.00
69222;PMS7003;56514;51.816;-0.026;2023-04-28T02:19:37;19.75;18.00;9.25
69222;PMS7003;56514;51.816;-0.026;2023-04-28T02:22:22;16.25;16.00;11.00
69222;PMS7003;56514;51.816;-0.026;2023-04-28T02:25:07;15.50;15.50;8.50
69222;PMS7003;56514;51.816;-0.026;2023-04-28T02:27:55;17.75;15.50;8.25
69222;PMS7003;56514;51.816;-0.026;2023-04-28T02:30:41;13.25;13.25;8.00
69222;PMS7003;56514;51.816;-0.026;2023-04-28T02:33:26;9.75;9.75;8.00
69222;PMS7003;56514;51.816;-0.026;2023-04-28T02:36:11;8.50;8.50;6.50
69222;PMS7003;56514;51.816;-0.026;2023-04-28T02:38:56;7.75;7.75;5.50
69222;PMS7003;56514;51.816;-0.026;2023-04-28T02:41:41;18.75;17.75;10.75
69222;PMS7003;56514;51.816;-0.026;2023-04-28T02:44:25;33.50;25.00;16.50
69222;PMS7003;56514;51.816;-0.026;2023-04-28T02:47:10;31.50;31.50;12.50
69222;PMS7003;56514;51.816;-0.026;2023-04-28T02:49:55;19.25;16.75;11.00
69222;PMS7003;56514;51.816;-0.026;2023-04-28T02:52:40;24.00;24.00;10.50
69222;PMS7003;56514;51.816;-0.026;2023-04-28T02:55:25;16.00;16.00;9.75
69222;PMS7003;56514;51.816;-0.026;2023-04-28T02:58:10;11.75;11.75;8.00
69222;PMS7003;56514;51.816;-0.026;2023-04-28T03:00:55;13.00;13.00;8.25
69222;PMS7003;56514;51.816;-0.026;2023-04-28T03:03:39;14.25;13.50;8.00
69222;PMS7003;56514;51.816;-0.026;2023-04-28T03:06:24;12.00;12.00;7.25
69222;PMS7003;56514;51.816;-0.026;2023-04-28T03:09:10;10.50;10.50;4.50
69222;PMS7003;56514;51.816;-0.026;2023-04-28T03:11:56;11.75;11.75;7.75
69222;PMS7003;56514;51.816;-0.026;2023-04-28T03:14:41;11.50;10.50;4.25
69222;PMS7003;56514;51.816;-0.026;2023-04-28T03:17:26;11.00;11.00;7.00
69222;PMS7003;56514;51.816;-0.026;2023-04-28T03:20:11;8.75;8.75;5.00
69222;PMS7003;56514;51.816;-0.026;2023-04-28T03:22:56;10.00;9.00;7.00
69222;PMS7003;56514;51.816;-0.026;2023-04-28T03:25:41;11.25;11.25;7.25
69222;PMS7003;56514;51.816;-0.026;2023-04-28T03:28:26;10.00;10.00;6.50
69222;PMS7003;56514;51.816;-0.026;2023-04-28T03:31:11;7.25;7.25;4.25
69222;PMS7003;56514;51.816;-0.026;2023-04-28T03:33:56;6.75;6.75;4.75
69222;PMS7003;56514;51.816;-0.026;2023-04-28T03:36:43;9.50;9.00;5.00
69222;PMS7003;56514;51.816;-0.026;2023-04-28T03:39:27;6.75;6.75;4.75
69222;PMS7003;56514;51.816;-0.026;2023-04-28T03:42:13;8.25;8.25;6.00
69222;PMS7003;56514;51.816;-0.026;2023-04-28T03:44:58;9.25;9.25;4.25
69222;PMS7003;56514;51.816;-0.026;2023-04-28T03:47:43;8.00;8.00;5.00
69222;PMS7003;56514;51.816;-0.026;2023-04-28T03:50:28;11.75;11.75;6.50
69222;PMS7003;56514;51.816;-0.026;2023-04-28T03:53:12;11.75;11.75;7.75
69222;PMS7003;56514;51.816;-0.026;2023-04-28T03:55:57;5.00;5.00;4.00
69222;PMS7003;56514;51.816;-0.026;2023-04-28T03:58:42;8.00;8.00;4.25
69222;PMS7003;56514;51.816;-0.026;2023-04-28T04:01:27;10.00;10.00;4.00
69222;PMS7003;56514;51.816;-0.026;2023-04-28T04:04:12;11.50;11.50;7.00
69222;PMS7003;56514;51.816;-0.026;2023-04-28T04:06:57;7.00;7.00;2.00
69222;PMS7003;56514;51.816;-0.026;2023-04-28T04:09:42;8.00;8.00;5.00
69222;PMS7003;56514;51.816;-0.026;2023-04-28T04:12:27;8.25;8.25;5.00
69222;PMS7003;56514;51.816;-0.026;2023-04-28T04:15:12;7.50;7.50;4.00
69222;PMS7003;56514;51.816;-0.026;2023-04-28T04:17:57;8.75;8.75;5.00
69222;PMS7003;56514;51.816;-0.026;2023-04-28T04:20:42;7.50;7.50;4.75
69222;PMS7003;56514;51.816;-0.026;2023-04-28T04:23:27;8.00;7.25;4.00
69222;PMS7003;56514;51.816;-0.026;2023-04-28T04:26:12;7.75;7.75;4.75
69222;PMS7003;56514;51.816;-0.026;2023-04-28T04:28:57;8.25;8.00;4.25
69222;PMS7003;56514;51.816;-0.026;2023-04-28T04:31:42;7.00;7.00;5.00
69222;PMS7003;56514;51.816;-0.026;2023-04-28T04:34:28;7.50;7.50;5.00
69222;PMS7003;56514;51.816;-0.026;2023-04-28T04:37:13;11.75;11.75;6.25
69222;PMS7003;56514;51.816;-0.026;2023-04-28T04:39:58;7.25;7.25;4.00
69222;PMS7003;56514;51.816;-0.026;2023-04-28T04:42:43;10.50;10.50;4.75
69222;PMS7003;56514;51.816;-0.026;2023-04-28T04:45:28;10.25;9.00;4.50
69222;PMS7003;56514;51.816;-0.026;2023-04-28T04:48:12;8.75;8.75;4.00
69222;PMS7003;56514;51.816;-0.026;2023-04-28T04:50:57;14.50;14.50;7.75
69222;PMS7003;56514;51.816;-0.026;2023-04-28T04:53:42;12.00;11.50;7.25
69222;PMS7003;56514;51.816;-0.026;2023-04-28T04:56:27;13.75;13.75;8.75
69222;PMS7003;56514;51.816;-0.026;2023-04-28T04:59:13;15.75;15.75;8.25
69222;PMS7003;56514;51.816;-0.026;2023-04-28T05:01:58;14.75;14.50;8.00
69222;PMS7003;56514;51.816;-0.026;2023-04-28T05:04:43;8.75;8.75;5.25
69222;PMS7003;56514;51.816;-0.026;2023-04-28T05:07:28;11.00;11.00;6.75
69222;PMS7003;56514;51.816;-0.026;2023-04-28T05:10:13;9.25;9.25;5.25
69222;PMS7003;56514;51.816;-0.026;2023-04-28T05:12:57;8.25;8.00;3.50
69222;PMS7003;56514;51.816;-0.026;2023-04-28T05:15:42;6.00;6.00;3.50
69222;PMS7003;56514;51.816;-0.026;2023-04-28T05:18:27;5.75;5.75;3.50
69222;PMS7003;56514;51.816;-0.026;2023-04-28T05:21:12;5.50;5.50;4.00
69222;PMS7003;56514;51.816;-0.026;2023-04-28T05:23:57;4.00;4.00;2.00
69222;PMS7003;56514;51.816;-0.026;2023-04-28T05:26:42;4.00;4.00;2.00
69222;PMS7003;56514;51.816;-0.026;2023-04-28T05:29:27;1.00;1.00;1.00
69222;PMS7003;56514;51.816;-0.026;2023-04-28T05:32:11;2.00;2.00;1.50
69222;PMS7003;56514;51.816;-0.026;2023-04-28T05:34:56;1.25;1.25;1.00
69222;PMS7003;56514;51.816;-0.026;2023-04-28T05:37:41;1.00;1.00;1.00
69222;PMS7003;56514;51.816;-0.026;2023-04-28T05:40:27;1.00;1.00;1.00
69222;PMS7003;56514;51.816;-0.026;2023-04-28T05:43:12;1.00;1.00;1.00
69222;PMS7003;56514;51.816;-0.026;2023-04-28T05:45:58;0.75;0.75;0.75
69222;PMS7003;56514;51.816;-0.026;2023-04-28T05:48:44;1.00;1.00;0.50
69222;PMS7003;56514;51.816;-0.026;2023-04-28T05:51:29;2.00;2.00;1.00
69222;PMS7003;56514;51.816;-0.026;2023-04-28T05:54:14;2.25;2.25;1.25
69222;PMS7003;56514;51.816;-0.026;2023-04-28T05:56:59;1.25;1.25;0.75
69222;PMS7003;56514;51.816;-0.026;2023-04-28T05:59:44;0.00;0.00;0.00
69222;PMS7003;56514;51.816;-0.026;2023-04-28T06:02:30;0.00;0.00;0.00
69222;PMS7003;56514;51.816;-0.026;2023-04-28T06:05:15;1.00;1.00;0.00
69222;PMS7003;56514;51.816;-0.026;2023-04-28T06:07:59;1.00;1.00;0.00
69222;PMS7003;56514;51.816;-0.026;2023-04-28T06:10:44;0.25;0.25;0.25
69222;PMS7003;56514;51.816;-0.026;2023-04-28T06:13:29;0.00;0.00;0.00
69222;PMS7003;56514;51.816;-0.026;2023-04-28T06:16:15;0.00;0.00;0.00
69222;PMS7003;56514;51.816;-0.026;2023-04-28T06:19:01;0.00;0.00;0.00
69222;PMS7003;56514;51.816;-0.026;2023-04-28T06:21:46;0.50;0.50;0.00
69222;PMS7003;56514;51.816;-0.026;2023-04-28T06:24:34;0.00;0.00;0.00
69222;PMS7003;56514;51.816;-0.026;2023-04-28T06:27:18;0.00;0.00;0.00
69222;PMS7003;56514;51.816;-0.026;2023-04-28T06:30:04;0.00;0.00;0.00
69222;PMS7003;56514;51.816;-0.026;2023-04-28T06:32:50;0.00;0.00;0.00
69222;PMS7003;56514;51.816;-0.026;2023-04-28T06:35:39;0.00;0.00;0.00
69222;PMS7003;56514;51.816;-0.026;2023-04-28T06:38:24;0.50;0.50;0.00
69222;PMS7003;56514;51.816;-0.026;2023-04-28T06:41:09;0.00;0.00;0.00
69222;PMS7003;56514;51.816;-0.026;2023-04-28T06:43:54;0.00;0.00;0.00
69222;PMS7003;56514;51.816;-0.026;2023-04-28T06:46:39;0.00;0.00;0.00
69222;PMS7003;56514;51.816;-0.026;2023-04-28T06:49:25;0.75;0.75;0.75
69222;PMS7003;56514;51.816;-0.026;2023-04-28T06:52:11;0.25;0.25;0.00
69222;PMS7003;56514;51.816;-0.026;2023-04-28T06:54:57;0.00;0.00;0.00
69222;PMS7003;56514;51.816;-0.026;2023-04-28T06:57:42;0.00;0.00;0.00
69222;PMS7003;56514;51.816;-0.026;2023-04-28T07:00:27;0.50;0.50;0.50
69222;PMS7003;56514;51.816;-0.026;2023-04-28T07:03:13;0.00;0.00;0.00
69222;PMS7003;56514;51.816;-0.026;2023-04-28T07:05:57;0.00;0.00;0.00
69222;PMS7003;56514;51.816;-0.026;2023-04-28T07:08:43;0.25;0.25;0.00
69222;PMS7003;56514;51.816;-0.026;2023-04-28T07:11:28;0.00;0.00;0.00
69222;PMS7003;56514;51.816;-0.026;2023-04-28T07:14:13;0.00;0.00;0.00
69222;PMS7003;56514;51.816;-0.026;2023-04-28T07:16:58;0.50;0.50;0.50
69222;PMS7003;56514;51.816;-0.026;2023-04-28T07:19:43;0.00;0.00;0.00
69222;PMS7003;56514;51.816;-0.026;2023-04-28T07:22:28;0.00;0.00;0.00
69222;PMS7003;56514;51.816;-0.026;2023-04-28T07:25:13;0.00;0.00;0.00
69222;PMS7003;56514;51.816;-0.026;2023-04-28T07:28:02;0.00;0.00;0.00
69222;PMS7003;56514;51.816;-0.026;2023-04-28T07:30:47;0.25;0.25;0.00
69222;PMS7003;56514;51.816;-0.026;2023-04-28T07:33:35;0.25;0.25;0.00
69222;PMS7003;56514;51.816;-0.026;2023-04-28T07:36:20;0.00;0.00;0.00
69222;PMS7003;56514;51.816;-0.026;2023-04-28T07:39:05;0.00;0.00;0.00
69222;PMS7003;56514;51.816;-0.026;2023-04-28T07:41:50;0.00;0.00;0.00
69222;PMS7003;56514;51.816;-0.026;2023-04-28T07:44:38;0.00;0.00;0.00
69222;PMS7003;56514;51.816;-0.026;2023-04-28T07:47:22;0.00;0.00;0.00
69222;PMS7003;56514;51.816;-0.026;2023-04-28T07:50:08;0.00;0.00;0.00
69222;PMS7003;56514;51.816;-0.026;2023-04-28T07:52:55;0.00;0.00;0.00
69222;PMS7003;56514;51.816;-0.026;2023-04-28T07:55:41;0.00;0.00;0.00
69222;PMS7003;56514;51.816;-0.026;2023-04-28T07:58:28;0.00;0.00;0.00
69222;PMS7003;56514;51.816;-0.026;2023-04-28T08:01:13;0.00;0.00;0.00
69222;PMS7003;56514;51.816;-0.026;2023-04-28T08:03:58;0.00;0.00;0.00
69222;PMS7003;56514;51.816;-0.026;2023-04-28T08:06:43;0.00;0.00;0.00
69222;PMS7003;56514;51.816;-0.026;2023-04-28T08:09:29;0.00;0.00;0.00
69222;PMS7003;56514;51.816;-0.026;2023-04-28T08:12:17;0.00;0.00;0.00
69222;PMS7003;56514;51.816;-0.026;2023-04-28T08:15:01;0.00;0.00;0.00
69222;PMS7003;56514;51.816;-0.026;2023-04-28T08:17:47;0.00;0.00;0.00
69222;PMS7003;56514;51.816;-0.026;2023-04-28T08:20:32;0.00;0.00;0.00
69222;PMS7003;56514;51.816;-0.026;2023-04-28T08:23:17;0.00;0.00;0.00
69222;PMS7003;56514;51.816;-0.026;2023-04-28T08:26:03;0.00;0.00;0.00
69222;PMS7003;56514;51.816;-0.026;2023-04-28T08:28:49;0.00;0.00;0.00
69222;PMS7003;56514;51.816;-0.026;2023-04-28T08:31:38;0.00;0.00;0.00
69222;PMS7003;56514;51.816;-0.026;2023-04-28T08:34:22;0.00;0.00;0.00
69222;PMS7003;56514;51.816;-0.026;2023-04-28T08:37:07;0.00;0.00;0.00
69222;PMS7003;56514;51.816;-0.026;2023-04-28T08:39:53;0.00;0.00;0.00
69222;PMS7003;56514;51.816;-0.026;2023-04-28T08:42:47;0.00;0.00;0.00
69222;PMS7003;56514;51.816;-0.026;2023-04-28T08:45:33;0.00;0.00;0.00
69222;PMS7003;56514;51.816;-0.026;2023-04-28T08:48:25;0.00;0.00;0.00
69222;PMS7003;56514;51.816;-0.026;2023-04-28T08:51:13;0.00;0.00;0.00
69222;PMS7003;56514;51.816;-0.026;2023-04-28T08:54:01;0.00;0.00;0.00
69222;PMS7003;56514;51.816;-0.026;2023-04-28T08:56:49;0.00;0.00;0.00
69222;PMS7003;56514;51.816;-0.026;2023-04-28T08:59:38;0.00;0.00;0.00
69222;PMS7003;56514;51.816;-0.026;2023-04-28T09:02:24;0.00;0.00;0.00
69222;PMS7003;56514;51.816;-0.026;2023-04-28T09:05:10;0.00;0.00;0.00
69222;PMS7003;56514;51.816;-0.026;2023-04-28T09:07:57;0.00;0.00;0.00
69222;PMS7003;56514;51.816;-0.026;2023-04-28T09:10:46;0.00;0.00;0.00
69222;PMS7003;56514;51.816;-0.026;2023-04-28T09:35:57;0.00;0.00;0.00
69222;PMS7003;56514;51.816;-0.026;2023-04-28T09:38:42;0.00;0.00;0.00
69222;PMS7003;56514;51.816;-0.026;2023-04-28T09:41:35;0.00;0.00;0.00
69222;PMS7003;56514;51.816;-0.026;2023-04-28T09:44:22;0.00;0.00;0.00
69222;PMS7003;56514;51.816;-0.026;2023-04-28T09:47:19;0.00;0.00;0.00
69222;PMS7003;56514;51.816;-0.026;2023-04-28T09:50:07;0.00;0.00;0.00
69222;PMS7003;56514;51.816;-0.026;2023-04-28T09:52:56;0.00;0.00;0.00
69222;PMS7003;56514;51.816;-0.026;2023-04-28T09:55:47;0.00;0.00;0.00
69222;PMS7003;56514;51.816;-0.026;2023-04-28T09:58:39;0.00;0.00;0.00
69222;PMS7003;56514;51.816;-0.026;2023-04-28T10:01:26;0.00;0.00;0.00
69222;PMS7003;56514;51.816;-0.026;2023-04-28T10:04:15;0.00;0.00;0.00
69222;PMS7003;56514;51.816;-0.026;2023-04-28T10:07:00;0.00;0.00;0.00
69222;PMS7003;56514;51.816;-0.026;2023-04-28T10:09:49;0.00;0.00;0.00
69222;PMS7003;56514;51.816;-0.026;2023-04-28T10:12:38;0.00;0.00;0.00
69222;PMS7003;56514;51.816;-0.026;2023-04-28T10:15:24;0.00;0.00;0.00
69222;PMS7003;56514;51.816;-0.026;2023-04-28T10:18:12;0.00;0.00;0.00
69222;PMS7003;56514;51.816;-0.026;2023-04-28T10:21:02;0.00;0.00;0.00
69222;PMS7003;56514;51.816;-0.026;2023-04-28T10:24:08;0.00;0.00;0.00
69222;PMS7003;56514;51.816;-0.026;2023-04-28T10:27:02;0.00;0.00;0.00
69222;PMS7003;56514;51.816;-0.026;2023-04-28T10:29:50;0.00;0.00;0.00
69222;PMS7003;56514;51.816;-0.026;2023-04-28T10:32:38;0.00;0.00;0.00
69222;PMS7003;56514;51.816;-0.026;2023-04-28T10:38:17;0.00;0.00;0.00
69222;PMS7003;56514;51.816;-0.026;2023-04-28T10:41:05;0.00;0.00;0.00
69222;PMS7003;56514;51.816;-0.026;2023-04-28T10:47:13;0.00;0.00;0.00
69222;PMS7003;56514;51.816;-0.026;2023-04-28T10:50:05;0.00;0.00;0.00
69222;PMS7003;56514;51.816;-0.026;2023-04-28T10:52:54;0.00;0.00;0.00
69222;PMS7003;56514;51.816;-0.026;2023-04-28T10:55:39;0.00;0.00;0.00
69222;PMS7003;56514;51.816;-0.026;2023-04-28T11:04:08;0.00;0.00;0.00
69222;PMS7003;56514;51.816;-0.026;2023-04-28T11:07:07;0.00;0.00;0.00
69222;PMS7003;56514;51.816;-0.026;2023-04-28T11:09:53;0.00;0.00;0.00
69222;PMS7003;56514;51.816;-0.026;2023-04-28T11:13:23;0.00;0.00;0.00
69222;PMS7003;56514;51.816;-0.026;2023-04-28T11:16:03;0.00;0.00;0.00
69222;PMS7003;56514;51.816;-0.026;2023-04-28T11:18:52;0.00;0.00;0.00
69222;PMS7003;56514;51.816;-0.026;2023-04-28T11:21:41;1.00;1.00;1.00
69222;PMS7003;56514;51.816;-0.026;2023-04-28T11:24:26;0.00;0.00;0.00
69222;PMS7003;56514;51.816;-0.026;2023-04-28T11:27:21;0.50;0.50;0.00
69222;PMS7003;56514;51.816;-0.026;2023-04-28T11:30:22;1.00;1.00;0.50
69222;PMS7003;56514;51.816;-0.026;2023-04-28T11:33:08;1.00;1.00;1.00
69222;PMS7003;56514;51.816;-0.026;2023-04-28T11:35:53;1.00;1.00;1.00
69222;PMS7003;56514;51.816;-0.026;2023-04-28T11:38:42;0.25;0.25;0.00
69222;PMS7003;56514;51.816;-0.026;2023-04-28T11:41:28;0.00;0.00;0.00
69222;PMS7003;56514;51.816;-0.026;2023-04-28T11:44:20;1.00;1.00;1.00
69222;PMS7003;56514;51.816;-0.026;2023-04-28T11:47:06;0.50;0.50;0.50
69222;PMS7003;56514;51.816;-0.026;2023-04-28T11:49:51;0.00;0.00;0.00
69222;PMS7003;56514;51.816;-0.026;2023-04-28T11:52:50;0.00;0.00;0.00
69222;PMS7003;56514;51.816;-0.026;2023-04-28T11:55:38;0.00;0.00;0.00
69222;PMS7003;56514;51.816;-0.026;2023-04-28T11:58:24;0.00;0.00;0.00
69222;PMS7003;56514;51.816;-0.026;2023-04-28T12:05:08;0.00;0.00;0.00
69222;PMS7003;56514;51.816;-0.026;2023-04-28T12:07:54;0.50;0.50;0.00
69222;PMS7003;56514;51.816;-0.026;2023-04-28T12:10:40;0.00;0.00;0.00
69222;PMS7003;56514;51.816;-0.026;2023-04-28T12:13:25;0.00;0.00;0.00
69222;PMS7003;56514;51.816;-0.026;2023-04-28T12:16:10;0.00;0.00;0.00
69222;PMS7003;56514;51.816;-0.026;2023-04-28T12:18:58;0.00;0.00;0.00
69222;PMS7003;56514;51.816;-0.026;2023-04-28T12:22:21;0.00;0.00;0.00
69222;PMS7003;56514;51.816;-0.026;2023-04-28T12:25:05;1.00;1.00;1.00
69222;PMS7003;56514;51.816;-0.026;2023-04-28T12:28:01;1.00;1.00;1.00
69222;PMS7003;56514;51.816;-0.026;2023-04-28T12:30:47;1.00;1.00;1.00
69222;PMS7003;56514;51.816;-0.026;2023-04-28T12:33:32;1.00;1.00;1.00
69222;PMS7003;56514;51.816;-0.026;2023-04-28T12:36:20;2.50;2.50;1.75
69222;PMS7003;56514;51.816;-0.026;2023-04-28T12:39:05;2.00;2.00;2.00
69222;PMS7003;56514;51.816;-0.026;2023-04-28T12:41:56;2.50;2.50;2.50
69222;PMS7003;56514;51.816;-0.026;2023-04-28T12:44:43;4.00;4.00;4.00
69222;PMS7003;56514;51.816;-0.026;2023-04-28T12:47:28;3.00;3.00;3.00
69222;PMS7003;56514;51.816;-0.026;2023-04-28T12:50:18;3.00;3.00;3.00
69222;PMS7003;56514;51.816;-0.026;2023-04-28T12:53:03;3.00;3.00;3.00
69222;PMS7003;56514;51.816;-0.026;2023-04-28T12:55:48;2.75;2.75;2.50
69222;PMS7003;56514;51.816;-0.026;2023-04-28T12:58:33;4.00;4.00;4.00
69222;PMS7003;56514;51.816;-0.026;2023-04-28T13:01:18;6.00;6.00;5.75
69222;PMS7003;56514;51.816;-0.026;2023-04-28T13:04:03;7.50;7.50;6.50
69222;PMS7003;56514;51.816;-0.026;2023-04-28T13:06:49;2.25;2.25;1.50
69222;PMS7003;56514;51.816;-0.026;2023-04-28T13:09:36;3.25;3.25;3.00
69222;PMS7003;56514;51.816;-0.026;2023-04-28T13:12:21;4.00;4.00;4.00
69222;PMS7003;56514;51.816;-0.026;2023-04-28T13:15:08;2.25;2.25;2.00
69222;PMS7003;56514;51.816;-0.026;2023-04-28T13:17:53;2.25;2.25;2.25
69222;PMS7003;56514;51.816;-0.026;2023-04-28T13:20:38;2.25;2.25;2.00
69222;PMS7003;56514;51.816;-0.026;2023-04-28T13:23:24;2.00;2.00;2.00
69222;PMS7003;56514;51.816;-0.026;2023-04-28T13:26:09;1.75;1.75;1.75
69222;PMS7003;56514;51.816;-0.026;2023-04-28T13:28:54;2.00;2.00;2.00
69222;PMS7003;56514;51.816;-0.026;2023-04-28T13:31:42;2.00;2.00;2.00
69222;PMS7003;56514;51.816;-0.026;2023-04-28T13:34:27;1.00;1.00;1.00
69222;PMS7003;56514;51.816;-0.026;2023-04-28T13:37:15;1.00;1.00;1.00
69222;PMS7003;56514;51.816;-0.026;2023-04-28T13:40:06;1.00;1.00;1.00
69222;PMS7003;56514;51.816;-0.026;2023-04-28T13:42:53;1.00;1.00;1.00
69222;PMS7003;56514;51.816;-0.026;2023-04-28T13:45:38;3.00;3.00;3.00
69222;PMS7003;56514;51.816;-0.026;2023-04-28T13:48:25;3.25;3.25;3.00
69222;PMS7003;56514;51.816;-0.026;2023-04-28T13:51:11;2.00;2.00;2.00
69222;PMS7003;56514;51.816;-0.026;2023-04-28T13:53:56;2.00;2.00;2.00
69222;PMS7003;56514;51.816;-0.026;2023-04-28T13:56:47;3.33;3.33;3.00
69222;PMS7003;56514;51.816;-0.026;2023-04-28T13:59:53;3.25;3.25;3.25
69222;PMS7003;56514;51.816;-0.026;2023-04-28T14:02:41;3.25;3.25;3.00
69222;PMS7003;56514;51.816;-0.026;2023-04-28T14:05:35;4.50;4.50;3.75
69222;PMS7003;56514;51.816;-0.026;2023-04-28T14:08:21;5.50;5.50;3.75
69222;PMS7003;56514;51.816;-0.026;2023-04-28T14:11:07;5.50;5.50;5.50
69222;PMS7003;56514;51.816;-0.026;2023-04-28T14:13:55;4.00;4.00;3.75
69222;PMS7003;56514;51.816;-0.026;2023-04-28T14:16:41;5.50;5.50;5.00
69222;PMS7003;56514;51.816;-0.026;2023-04-28T14:19:26;3.00;3.00;3.00
69222;PMS7003;56514;51.816;-0.026;2023-04-28T14:22:11;4.00;4.00;4.00
69222;PMS7003;56514;51.816;-0.026;2023-04-28T14:24:57;6.75;6.75;6.00
69222;PMS7003;56514;51.816;-0.026;2023-04-28T14:27:42;4.50;4.50;4.00
69222;PMS7003;56514;51.816;-0.026;2023-04-28T14:30:30;4.50;4.50;4.00
69222;PMS7003;56514;51.816;-0.026;2023-04-28T14:33:16;3.00;3.00;2.25
69222;PMS7003;56514;51.816;-0.026;2023-04-28T14:36:01;6.50;6.50;4.50
69222;PMS7003;56514;51.816;-0.026;2023-04-28T14:38:46;4.75;4.75;3.75
69222;PMS7003;56514;51.816;-0.026;2023-04-28T14:41:34;3.25;3.25;3.25
69222;PMS7003;56514;51.816;-0.026;2023-04-28T14:44:20;4.00;4.00;3.50
69222;PMS7003;56514;51.816;-0.026;2023-04-28T14:47:05;4.50;4.50;3.00
69222;PMS7003;56514;51.816;-0.026;2023-04-28T14:49:53;3.00;3.00;3.00
69222;PMS7003;56514;51.816;-0.026;2023-04-28T14:52:58;3.25;3.25;3.25
69222;PMS7003;56514;51.816;-0.026;2023-04-28T14:55:48;4.00;4.00;4.00
69222;PMS7003;56514;51.816;-0.026;2023-04-28T14:58:37;4.00;4.00;4.00
69222;PMS7003;56514;51.816;-0.026;2023-04-28T15:01:26;4.25;4.25;3.50
69222;PMS7003;56514;51.816;-0.026;2023-04-28T15:04:14;5.25;5.25;4.50
69222;PMS7003;56514;51.816;-0.026;2023-04-28T15:07:03;3.25;3.25;3.25
69222;PMS7003;56514;51.816;-0.026;2023-04-28T15:09:49;4.25;4.25;3.75
69222;PMS7003;56514;51.816;-0.026;2023-04-28T15:12:37;5.00;5.00;4.00
69222;PMS7003;56514;51.816;-0.026;2023-04-28T15:15:22;2.00;2.00;2.00
69222;PMS7003;56514;51.816;-0.026;2023-04-28T15:18:10;3.75;3.75;3.00
69222;PMS7003;56514;51.816;-0.026;2023-04-28T15:20:55;3.50;3.50;3.00
69222;PMS7003;56514;51.816;-0.026;2023-04-28T15:23:41;3.00;3.00;2.75
69222;PMS7003;56514;51.816;-0.026;2023-04-28T15:26:31;4.00;4.00;3.00
69222;PMS7003;56514;51.816;-0.026;2023-04-28T15:29:17;4.00;4.00;3.25
69222;PMS7003;56514;51.816;-0.026;2023-04-28T15:32:06;2.50;2.50;2.00
69222;PMS7003;56514;51.816;-0.026;2023-04-28T15:34:50;3.25;3.25;3.00
69222;PMS7003;56514;51.816;-0.026;2023-04-28T15:37:40;3.25;3.25;3.00
69222;PMS7003;56514;51.816;-0.026;2023-04-28T15:40:26;3.75;3.75;3.25
69222;PMS7003;56514;51.816;-0.026;2023-04-28T15:43:13;4.00;4.00;4.00
69222;PMS7003;56514;51.816;-0.026;2023-04-28T15:46:03;3.00;3.00;3.00
69222;PMS7003;56514;51.816;-0.026;2023-04-28T15:48:51;4.00;4.00;3.75
69222;PMS7003;56514;51.816;-0.026;2023-04-28T15:51:38;4.00;4.00;4.00
69222;PMS7003;56514;51.816;-0.026;2023-04-28T15:54:26;4.00;4.00;3.00
69222;PMS7003;56514;51.816;-0.026;2023-04-28T15:57:12;4.00;4.00;3.50
69222;PMS7003;56514;51.816;-0.026;2023-04-28T16:00:06;5.00;5.00;4.00
69222;PMS7003;56514;51.816;-0.026;2023-04-28T16:03:03;6.50;6.50;5.00
69222;PMS7003;56514;51.816;-0.026;2023-04-28T16:05:48;4.75;4.75;4.00
69222;PMS7003;56514;51.816;-0.026;2023-04-28T16:08:36;6.00;6.00;5.75
69222;PMS7003;56514;51.816;-0.026;2023-04-28T16:11:24;6.00;6.00;4.75
69222;PMS7003;56514;51.816;-0.026;2023-04-28T16:14:27;3.75;3.75;3.00
69222;PMS7003;56514;51.816;-0.026;2023-04-28T16:17:13;6.75;6.75;6.00
69222;PMS7003;56514;51.816;-0.026;2023-04-28T16:20:01;3.50;3.50;3.50
69222;PMS7003;56514;51.816;-0.026;2023-04-28T16:22:56;3.00;3.00;3.00
69222;PMS7003;56514;51.816;-0.026;2023-04-28T16:25:53;9.75;9.75;6.50
69222;PMS7003;56514;51.816;-0.026;2023-04-28T16:28:41;12.75;11.75;6.00
69222;PMS7003;56514;51.816;-0.026;2023-04-28T16:31:26;9.00;9.00;6.00